sensor_id;sensor_type;location;lat;lon;timestamp;P1;durP1;ratioP1;P2;durP2;ratioP2
60354;SDS011;46198;51.464;-0.066;2023-11-19T00:01:21;28.05;;;4.95;;
60354;SDS011;46198;51.464;-0.066;2023-11-19T00:03:53;29.80;;;6.50;;
60354;SDS011;46198;51.464;-0.066;2023-11-19T00:06:21;25.42;;;5.05;;
60354;SDS011;46198;51.464;-0.066;2023-11-19T00:08:49;25.45;;;3.88;;
60354;SDS011;46198;51.464;-0.066;2023-11-19T00:11:18;30.63;;;5.82;;
60354;SDS011;46198;51.464;-0.066;2023-11-19T00:13:46;27.73;;;5.43;;
60354;SDS011;46198;51.464;-0.066;2023-11-19T00:16:14;31.23;;;6.18;;
60354;SDS011;46198;51.464;-0.066;2023-11-19T00:18:43;31.40;;;5.22;;
60354;SDS011;46198;51.464;-0.066;2023-11-19T00:21:12;27.27;;;4.80;;
60354;SDS011;46198;51.464;-0.066;2023-11-19T00:23:40;34.90;;;5.82;;
60354;SDS011;46198;51.464;-0.066;2023-11-19T00:26:08;21.77;;;5.57;;
60354;SDS011;46198;51.464;-0.066;2023-11-19T00:28:39;20.77;;;4.13;;
60354;SDS011;46198;51.464;-0.066;2023-11-19T00:31:07;27.33;;;4.78;;
60354;SDS011;46198;51.464;-0.066;2023-11-19T00:33:36;25.63;;;4.75;;
60354;SDS011;46198;51.464;-0.066;2023-11-19T00:36:17;23.60;;;3.88;;
60354;SDS011;46198;51.464;-0.066;2023-11-19T00:38:45;28.77;;;5.53;;
60354;SDS011;46198;51.464;-0.066;2023-11-19T00:41:13;37.42;;;6.45;;
60354;SDS011;46198;51.464;-0.066;2023-11-19T00:43:43;28.45;;;5.13;;
60354;SDS011;46198;51.464;-0.066;2023-11-19T00:46:11;27.23;;;5.85;;
60354;SDS011;46198;51.464;-0.066;2023-11-19T00:48:40;45.22;;;7.10;;
60354;SDS011;46198;51.464;-0.066;2023-11-19T00:51:08;33.08;;;4.10;;
60354;SDS011;46198;51.464;-0.066;2023-11-19T00:53:40;30.85;;;4.43;;
60354;SDS011;46198;51.464;-0.066;2023-11-19T00:56:10;30.65;;;5.85;;
60354;SDS011;46198;51.464;-0.066;2023-11-19T00:58:39;31.63;;;5.07;;
60354;SDS011;46198;51.464;-0.066;2023-11-19T01:01:07;30.15;;;4.53;;
60354;SDS011;46198;51.464;-0.066;2023-11-19T01:03:36;26.83;;;4.05;;
60354;SDS011;46198;51.464;-0.066;2023-11-19T01:06:04;28.73;;;4.90;;
60354;SDS011;46198;51.464;-0.066;2023-11-19T01:08:33;29.77;;;4.47;;
60354;SDS011;46198;51.464;-0.066;2023-11-19T01:11:04;34.03;;;5.07;;
60354;SDS011;46198;51.464;-0.066;2023-11-19T01:13:32;24.05;;;4.20;;
60354;SDS011;46198;51.464;-0.066;2023-11-19T01:16:00;24.45;;;5.07;;
60354;SDS011;46198;51.464;-0.066;2023-11-19T01:18:29;29.23;;;5.32;;
60354;SDS011;46198;51.464;-0.066;2023-11-19T01:20:57;29.92;;;4.18;;
60354;SDS011;46198;51.464;-0.066;2023-11-19T01:23:25;21.77;;;4.22;;
60354;SDS011;46198;51.464;-0.066;2023-11-19T01:25:53;41.58;;;8.05;;
60354;SDS011;46198;51.464;-0.066;2023-11-19T01:28:23;28.05;;;5.63;;
60354;SDS011;46198;51.464;-0.066;2023-11-19T01:30:52;23.90;;;4.82;;
60354;SDS011;46198;51.464;-0.066;2023-11-19T01:33:20;25.77;;;4.20;;
60354;SDS011;46198;51.464;-0.066;2023-11-19T01:35:49;28.85;;;4.20;;
60354;SDS011;46198;51.464;-0.066;2023-11-19T01:38:17;29.00;;;5.65;;
60354;SDS011;46198;51.464;-0.066;2023-11-19T01:40:45;21.90;;;3.45;;
60354;SDS011;46198;51.464;-0.066;2023-11-19T01:46:02;29.80;;;4.45;;
60354;SDS011;46198;51.464;-0.066;2023-11-19T01:48:32;31.98;;;4.93;;
60354;SDS011;46198;51.464;-0.066;2023-11-19T01:51:03;28.75;;;4.40;;
60354;SDS011;46198;51.464;-0.066;2023-11-19T01:53:33;23.60;;;4.43;;
60354;SDS011;46198;51.464;-0.066;2023-11-19T01:56:02;39.85;;;6.63;;
60354;SDS011;46198;51.464;-0.066;2023-11-19T01:58:31;25.23;;;3.67;;
60354;SDS011;46198;51.464;-0.066;2023-11-19T02:01:02;25.52;;;3.92;;
60354;SDS011;46198;51.464;-0.066;2023-11-19T02:03:31;31.77;;;4.93;;
60354;SDS011;46198;51.464;-0.066;2023-11-19T02:06:01;32.72;;;6.07;;
60354;SDS011;46198;51.464;-0.066;2023-11-19T02:08:30;36.35;;;4.22;;
60354;SDS011;46198;51.464;-0.066;2023-11-19T02:10:59;21.98;;;4.95;;
60354;SDS011;46198;51.464;-0.066;2023-11-19T02:13:27;27.00;;;4.18;;
60354;SDS011;46198;51.464;-0.066;2023-11-19T02:15:56;26.95;;;4.70;;
60354;SDS011;46198;51.464;-0.066;2023-11-19T02:18:26;26.02;;;4.35;;
60354;SDS011;46198;51.464;-0.066;2023-11-19T02:20:55;26.85;;;4.20;;
60354;SDS011;46198;51.464;-0.066;2023-11-19T02:23:25;45.22;;;6.43;;
60354;SDS011;46198;51.464;-0.066;2023-11-19T02:25:58;37.25;;;4.60;;
60354;SDS011;46198;51.464;-0.066;2023-11-19T02:28:31;28.90;;;4.55;;
60354;SDS011;46198;51.464;-0.066;2023-11-19T02:31:00;23.20;;;4.57;;
60354;SDS011;46198;51.464;-0.066;2023-11-19T02:33:28;23.25;;;3.72;;
60354;SDS011;46198;51.464;-0.066;2023-11-19T02:35:56;27.80;;;3.95;;
60354;SDS011;46198;51.464;-0.066;2023-11-19T02:38:25;33.33;;;4.43;;
60354;SDS011;46198;51.464;-0.066;2023-11-19T02:40:53;30.02;;;4.57;;
60354;SDS011;46198;51.464;-0.066;2023-11-19T02:43:21;24.65;;;3.88;;
60354;SDS011;46198;51.464;-0.066;2023-11-19T02:45:50;30.17;;;4.50;;
60354;SDS011;46198;51.464;-0.066;2023-11-19T02:48:22;43.50;;;5.35;;
60354;SDS011;46198;51.464;-0.066;2023-11-19T02:50:50;23.52;;;4.85;;
60354;SDS011;46198;51.464;-0.066;2023-11-19T02:53:19;31.77;;;4.85;;
60354;SDS011;46198;51.464;-0.066;2023-11-19T02:55:49;28.17;;;4.53;;
60354;SDS011;46198;51.464;-0.066;2023-11-19T02:58:18;22.73;;;4.30;;
60354;SDS011;46198;51.464;-0.066;2023-11-19T03:00:52;35.78;;;4.88;;
60354;SDS011;46198;51.464;-0.066;2023-11-19T03:03:24;26.17;;;3.83;;
60354;SDS011;46198;51.464;-0.066;2023-11-19T03:05:57;32.90;;;4.75;;
60354;SDS011;46198;51.464;-0.066;2023-11-19T03:08:25;35.42;;;5.00;;
60354;SDS011;46198;51.464;-0.066;2023-11-19T03:10:53;29.52;;;5.20;;
60354;SDS011;46198;51.464;-0.066;2023-11-19T03:13:21;28.60;;;4.07;;
60354;SDS011;46198;51.464;-0.066;2023-11-19T03:15:50;24.20;;;4.05;;
60354;SDS011;46198;51.464;-0.066;2023-11-19T03:18:22;26.27;;;3.70;;
60354;SDS011;46198;51.464;-0.066;2023-11-19T03:20:51;33.70;;;4.50;;
60354;SDS011;46198;51.464;-0.066;2023-11-19T03:23:19;25.25;;;3.85;;
60354;SDS011;46198;51.464;-0.066;2023-11-19T03:25:47;21.75;;;4.47;;
60354;SDS011;46198;51.464;-0.066;2023-11-19T03:28:15;25.08;;;3.85;;
60354;SDS011;46198;51.464;-0.066;2023-11-19T03:30:43;30.92;;;3.70;;
60354;SDS011;46198;51.464;-0.066;2023-11-19T03:33:12;23.52;;;3.42;;
60354;SDS011;46198;51.464;-0.066;2023-11-19T03:35:41;26.42;;;5.57;;
60354;SDS011;46198;51.464;-0.066;2023-11-19T03:38:10;23.02;;;4.60;;
60354;SDS011;46198;51.464;-0.066;2023-11-19T03:40:38;28.23;;;4.38;;
60354;SDS011;46198;51.464;-0.066;2023-11-19T03:43:07;17.42;;;3.67;;
60354;SDS011;46198;51.464;-0.066;2023-11-19T03:45:36;27.35;;;3.90;;
60354;SDS011;46198;51.464;-0.066;2023-11-19T03:48:07;23.13;;;4.03;;
60354;SDS011;46198;51.464;-0.066;2023-11-19T03:50:35;28.17;;;4.50;;
60354;SDS011;46198;51.464;-0.066;2023-11-19T03:53:05;35.92;;;5.15;;
60354;SDS011;46198;51.464;-0.066;2023-11-19T03:55:33;23.42;;;3.78;;
60354;SDS011;46198;51.464;-0.066;2023-11-19T03:58:02;26.02;;;3.67;;
60354;SDS011;46198;51.464;-0.066;2023-11-19T04:00:31;29.27;;;4.18;;
60354;SDS011;46198;51.464;-0.066;2023-11-19T04:03:00;26.27;;;4.78;;
60354;SDS011;46198;51.464;-0.066;2023-11-19T04:05:28;20.90;;;2.97;;
60354;SDS011;46198;51.464;-0.066;2023-11-19T04:07:57;25.77;;;3.67;;
60354;SDS011;46198;51.464;-0.066;2023-11-19T04:10:26;32.47;;;4.85;;
60354;SDS011;46198;51.464;-0.066;2023-11-19T04:12:56;28.17;;;3.88;;
60354;SDS011;46198;51.464;-0.066;2023-11-19T04:15:24;14.77;;;2.85;;
60354;SDS011;46198;51.464;-0.066;2023-11-19T04:17:52;25.65;;;4.43;;
60354;SDS011;46198;51.464;-0.066;2023-11-19T04:20:21;27.45;;;4.93;;
60354;SDS011;46198;51.464;-0.066;2023-11-19T04:22:49;21.42;;;4.57;;
60354;SDS011;46198;51.464;-0.066;2023-11-19T04:25:18;27.60;;;3.97;;
60354;SDS011;46198;51.464;-0.066;2023-11-19T04:27:47;29.55;;;5.88;;
60354;SDS011;46198;51.464;-0.066;2023-11-19T04:30:16;27.08;;;4.43;;
60354;SDS011;46198;51.464;-0.066;2023-11-19T04:32:44;27.55;;;3.80;;
60354;SDS011;46198;51.464;-0.066;2023-11-19T04:35:13;27.30;;;4.38;;
60354;SDS011;46198;51.464;-0.066;2023-11-19T04:37:41;32.47;;;6.63;;
60354;SDS011;46198;51.464;-0.066;2023-11-19T04:40:10;31.10;;;5.93;;
60354;SDS011;46198;51.464;-0.066;2023-11-19T04:42:38;31.48;;;4.97;;
60354;SDS011;46198;51.464;-0.066;2023-11-19T04:45:09;30.15;;;4.00;;
60354;SDS011;46198;51.464;-0.066;2023-11-19T04:47:37;24.03;;;4.73;;
60354;SDS011;46198;51.464;-0.066;2023-11-19T04:50:06;27.38;;;4.22;;
60354;SDS011;46198;51.464;-0.066;2023-11-19T04:55:07;27.75;;;5.45;;
60354;SDS011;46198;51.464;-0.066;2023-11-19T04:57:38;30.90;;;3.83;;
60354;SDS011;46198;51.464;-0.066;2023-11-19T05:00:07;31.42;;;4.55;;
60354;SDS011;46198;51.464;-0.066;2023-11-19T05:02:40;29.63;;;5.07;;
60354;SDS011;46198;51.464;-0.066;2023-11-19T05:05:09;26.00;;;5.32;;
60354;SDS011;46198;51.464;-0.066;2023-11-19T05:07:38;21.50;;;3.58;;
60354;SDS011;46198;51.464;-0.066;2023-11-19T05:10:07;29.58;;;4.07;;
60354;SDS011;46198;51.464;-0.066;2023-11-19T05:12:36;25.05;;;3.42;;
60354;SDS011;46198;51.464;-0.066;2023-11-19T05:15:05;25.42;;;3.60;;
60354;SDS011;46198;51.464;-0.066;2023-11-19T05:17:35;24.20;;;4.25;;
60354;SDS011;46198;51.464;-0.066;2023-11-19T05:24:53;30.55;;;4.20;;
60354;SDS011;46198;51.464;-0.066;2023-11-19T05:27:22;24.85;;;4.35;;
60354;SDS011;46198;51.464;-0.066;2023-11-19T05:29:51;20.60;;;3.53;;
60354;SDS011;46198;51.464;-0.066;2023-11-19T05:32:19;28.60;;;4.10;;
60354;SDS011;46198;51.464;-0.066;2023-11-19T05:34:48;29.50;;;3.72;;
60354;SDS011;46198;51.464;-0.066;2023-11-19T05:37:18;20.02;;;3.97;;
60354;SDS011;46198;51.464;-0.066;2023-11-19T05:39:46;39.80;;;6.03;;
60354;SDS011;46198;51.464;-0.066;2023-11-19T05:42:14;22.73;;;3.63;;
60354;SDS011;46198;51.464;-0.066;2023-11-19T05:44:42;32.65;;;5.45;;
60354;SDS011;46198;51.464;-0.066;2023-11-19T05:47:11;24.77;;;4.82;;
60354;SDS011;46198;51.464;-0.066;2023-11-19T05:49:39;22.00;;;4.18;;
60354;SDS011;46198;51.464;-0.066;2023-11-19T05:52:08;26.02;;;3.65;;
60354;SDS011;46198;51.464;-0.066;2023-11-19T05:54:38;31.55;;;5.15;;
60354;SDS011;46198;51.464;-0.066;2023-11-19T05:57:06;22.23;;;4.55;;
60354;SDS011;46198;51.464;-0.066;2023-11-19T05:59:36;45.88;;;6.10;;
60354;SDS011;46198;51.464;-0.066;2023-11-19T06:02:05;23.23;;;4.00;;
60354;SDS011;46198;51.464;-0.066;2023-11-19T06:04:34;24.30;;;3.30;;
60354;SDS011;46198;51.464;-0.066;2023-11-19T06:07:02;32.03;;;5.07;;
60354;SDS011;46198;51.464;-0.066;2023-11-19T06:09:33;17.38;;;5.18;;
60354;SDS011;46198;51.464;-0.066;2023-11-19T06:12:01;24.00;;;4.78;;
60354;SDS011;46198;51.464;-0.066;2023-11-19T06:14:30;28.30;;;4.22;;
60354;SDS011;46198;51.464;-0.066;2023-11-19T06:16:58;29.23;;;4.35;;
60354;SDS011;46198;51.464;-0.066;2023-11-19T06:19:27;20.58;;;4.15;;
60354;SDS011;46198;51.464;-0.066;2023-11-19T06:21:56;27.58;;;4.82;;
60354;SDS011;46198;51.464;-0.066;2023-11-19T06:24:25;23.67;;;3.67;;
60354;SDS011;46198;51.464;-0.066;2023-11-19T06:26:54;24.13;;;3.25;;
60354;SDS011;46198;51.464;-0.066;2023-11-19T06:29:22;23.48;;;4.05;;
60354;SDS011;46198;51.464;-0.066;2023-11-19T06:31:51;15.57;;;4.03;;
60354;SDS011;46198;51.464;-0.066;2023-11-19T06:34:19;18.40;;;2.88;;
60354;SDS011;46198;51.464;-0.066;2023-11-19T06:36:47;27.60;;;4.60;;
60354;SDS011;46198;51.464;-0.066;2023-11-19T06:39:16;27.70;;;5.63;;
60354;SDS011;46198;51.464;-0.066;2023-11-19T06:41:45;22.08;;;4.15;;
60354;SDS011;46198;51.464;-0.066;2023-11-19T06:44:15;17.90;;;2.75;;
60354;SDS011;46198;51.464;-0.066;2023-11-19T06:46:43;24.48;;;3.25;;
60354;SDS011;46198;51.464;-0.066;2023-11-19T06:49:11;28.88;;;3.20;;
60354;SDS011;46198;51.464;-0.066;2023-11-19T06:51:41;20.95;;;2.40;;
60354;SDS011;46198;51.464;-0.066;2023-11-19T06:54:10;31.30;;;4.78;;
60354;SDS011;46198;51.464;-0.066;2023-11-19T06:56:38;18.58;;;3.40;;
60354;SDS011;46198;51.464;-0.066;2023-11-19T06:59:07;20.98;;;3.38;;
60354;SDS011;46198;51.464;-0.066;2023-11-19T07:01:37;14.88;;;3.15;;
60354;SDS011;46198;51.464;-0.066;2023-11-19T07:04:05;22.48;;;3.78;;
60354;SDS011;46198;51.464;-0.066;2023-11-19T07:06:37;30.30;;;3.72;;
60354;SDS011;46198;51.464;-0.066;2023-11-19T07:09:08;23.40;;;4.35;;
60354;SDS011;46198;51.464;-0.066;2023-11-19T07:11:37;22.75;;;3.65;;
60354;SDS011;46198;51.464;-0.066;2023-11-19T07:14:06;25.83;;;4.05;;
60354;SDS011;46198;51.464;-0.066;2023-11-19T07:16:37;22.85;;;4.32;;
60354;SDS011;46198;51.464;-0.066;2023-11-19T07:19:07;18.35;;;3.00;;
60354;SDS011;46198;51.464;-0.066;2023-11-19T07:21:36;31.00;;;3.60;;
60354;SDS011;46198;51.464;-0.066;2023-11-19T07:24:09;24.20;;;3.80;;
60354;SDS011;46198;51.464;-0.066;2023-11-19T07:26:42;23.20;;;4.15;;
60354;SDS011;46198;51.464;-0.066;2023-11-19T07:32:55;25.15;;;3.53;;
60354;SDS011;46198;51.464;-0.066;2023-11-19T07:35:23;18.88;;;4.78;;
60354;SDS011;46198;51.464;-0.066;2023-11-19T07:40:46;18.52;;;2.92;;
60354;SDS011;46198;51.464;-0.066;2023-11-19T07:43:17;18.80;;;3.15;;
60354;SDS011;46198;51.464;-0.066;2023-11-19T07:45:46;24.08;;;3.63;;
60354;SDS011;46198;51.464;-0.066;2023-11-19T07:48:15;16.60;;;3.45;;
60354;SDS011;46198;51.464;-0.066;2023-11-19T07:50:46;21.85;;;3.63;;
60354;SDS011;46198;51.464;-0.066;2023-11-19T07:53:14;27.10;;;3.95;;
60354;SDS011;46198;51.464;-0.066;2023-11-19T07:55:42;25.85;;;4.97;;
60354;SDS011;46198;51.464;-0.066;2023-11-19T07:58:10;20.17;;;3.78;;
60354;SDS011;46198;51.464;-0.066;2023-11-19T08:00:39;18.35;;;4.07;;
60354;SDS011;46198;51.464;-0.066;2023-11-19T08:03:07;25.08;;;3.63;;
60354;SDS011;46198;51.464;-0.066;2023-11-19T08:05:37;20.02;;;3.88;;
60354;SDS011;46198;51.464;-0.066;2023-11-19T08:08:06;24.75;;;3.90;;
60354;SDS011;46198;51.464;-0.066;2023-11-19T08:10:34;18.40;;;3.40;;
60354;SDS011;46198;51.464;-0.066;2023-11-19T08:13:02;20.20;;;3.97;;
60354;SDS011;46198;51.464;-0.066;2023-11-19T08:15:31;23.10;;;3.17;;
60354;SDS011;46198;51.464;-0.066;2023-11-19T08:17:59;18.08;;;2.88;;
60354;SDS011;46198;51.464;-0.066;2023-11-19T08:20:28;19.13;;;4.68;;
60354;SDS011;46198;51.464;-0.066;2023-11-19T08:22:59;18.00;;;3.22;;
60354;SDS011;46198;51.464;-0.066;2023-11-19T08:25:27;16.88;;;3.00;;
60354;SDS011;46198;51.464;-0.066;2023-11-19T08:27:55;18.25;;;2.72;;
60354;SDS011;46198;51.464;-0.066;2023-11-19T08:30:24;20.80;;;3.42;;
60354;SDS011;46198;51.464;-0.066;2023-11-19T08:32:52;13.05;;;3.20;;
60354;SDS011;46198;51.464;-0.066;2023-11-19T08:35:20;17.85;;;2.85;;
60354;SDS011;46198;51.464;-0.066;2023-11-19T08:37:48;16.70;;;2.55;;
60354;SDS011;46198;51.464;-0.066;2023-11-19T08:40:19;22.23;;;3.20;;
60354;SDS011;46198;51.464;-0.066;2023-11-19T08:42:48;17.33;;;3.40;;
60354;SDS011;46198;51.464;-0.066;2023-11-19T08:45:17;18.05;;;3.78;;
60354;SDS011;46198;51.464;-0.066;2023-11-19T08:47:47;21.15;;;3.05;;
60354;SDS011;46198;51.464;-0.066;2023-11-19T08:50:15;18.40;;;3.70;;
60354;SDS011;46198;51.464;-0.066;2023-11-19T08:52:43;17.73;;;2.55;;
60354;SDS011;46198;51.464;-0.066;2023-11-19T08:55:11;19.15;;;2.60;;
60354;SDS011;46198;51.464;-0.066;2023-11-19T09:00:35;14.20;;;3.38;;
60354;SDS011;46198;51.464;-0.066;2023-11-19T09:03:03;18.90;;;2.58;;
60354;SDS011;46198;51.464;-0.066;2023-11-19T09:05:31;16.17;;;3.00;;
60354;SDS011;46198;51.464;-0.066;2023-11-19T09:08:00;17.45;;;3.80;;
60354;SDS011;46198;51.464;-0.066;2023-11-19T09:10:28;22.15;;;4.65;;
60354;SDS011;46198;51.464;-0.066;2023-11-19T09:12:56;16.02;;;2.97;;
60354;SDS011;46198;51.464;-0.066;2023-11-19T09:15:26;17.90;;;2.97;;
60354;SDS011;46198;51.464;-0.066;2023-11-19T09:17:54;16.33;;;3.97;;
60354;SDS011;46198;51.464;-0.066;2023-11-19T09:20:22;16.52;;;3.03;;
60354;SDS011;46198;51.464;-0.066;2023-11-19T09:22:51;21.88;;;3.50;;
60354;SDS011;46198;51.464;-0.066;2023-11-19T09:28:12;15.63;;;4.05;;
60354;SDS011;46198;51.464;-0.066;2023-11-19T09:30:42;19.45;;;3.25;;
60354;SDS011;46198;51.464;-0.066;2023-11-19T09:33:10;19.50;;;3.95;;
60354;SDS011;46198;51.464;-0.066;2023-11-19T09:35:39;18.42;;;3.95;;
60354;SDS011;46198;51.464;-0.066;2023-11-19T09:38:07;12.73;;;3.40;;
60354;SDS011;46198;51.464;-0.066;2023-11-19T09:43:58;28.60;;;4.90;;
60354;SDS011;46198;51.464;-0.066;2023-11-19T09:46:29;21.08;;;4.32;;
60354;SDS011;46198;51.464;-0.066;2023-11-19T09:48:58;18.37;;;5.37;;
60354;SDS011;46198;51.464;-0.066;2023-11-19T09:51:27;17.88;;;3.97;;
60354;SDS011;46198;51.464;-0.066;2023-11-19T09:53:55;23.85;;;4.47;;
60354;SDS011;46198;51.464;-0.066;2023-11-19T09:56:24;25.10;;;3.92;;
60354;SDS011;46198;51.464;-0.066;2023-11-19T09:58:54;24.60;;;3.53;;
60354;SDS011;46198;51.464;-0.066;2023-11-19T10:01:22;21.88;;;4.25;;
60354;SDS011;46198;51.464;-0.066;2023-11-19T10:03:58;21.92;;;4.13;;
60354;SDS011;46198;51.464;-0.066;2023-11-19T10:06:28;23.27;;;5.53;;
60354;SDS011;46198;51.464;-0.066;2023-11-19T10:08:57;22.60;;;4.43;;
60354;SDS011;46198;51.464;-0.066;2023-11-19T10:15:24;18.90;;;3.75;;
60354;SDS011;46198;51.464;-0.066;2023-11-19T10:17:54;15.77;;;2.90;;
60354;SDS011;46198;51.464;-0.066;2023-11-19T10:20:25;20.55;;;3.95;;
60354;SDS011;46198;51.464;-0.066;2023-11-19T10:22:54;17.90;;;3.40;;
60354;SDS011;46198;51.464;-0.066;2023-11-19T10:25:23;20.55;;;3.97;;
60354;SDS011;46198;51.464;-0.066;2023-11-19T10:27:53;17.13;;;3.30;;
60354;SDS011;46198;51.464;-0.066;2023-11-19T10:30:22;20.92;;;3.15;;
60354;SDS011;46198;51.464;-0.066;2023-11-19T10:38:32;19.17;;;3.42;;
60354;SDS011;46198;51.464;-0.066;2023-11-19T10:41:01;17.55;;;3.00;;
60354;SDS011;46198;51.464;-0.066;2023-11-19T10:43:31;17.83;;;3.60;;
60354;SDS011;46198;51.464;-0.066;2023-11-19T10:46:11;20.23;;;3.08;;
60354;SDS011;46198;51.464;-0.066;2023-11-19T10:48:40;18.35;;;3.20;;
60354;SDS011;46198;51.464;-0.066;2023-11-19T10:51:12;22.33;;;3.37;;
60354;SDS011;46198;51.464;-0.066;2023-11-19T10:53:48;18.02;;;2.60;;
60354;SDS011;46198;51.464;-0.066;2023-11-19T10:56:18;9.95;;;2.00;;
60354;SDS011;46198;51.464;-0.066;2023-11-19T10:58:48;16.03;;;2.37;;
60354;SDS011;46198;51.464;-0.066;2023-11-19T11:01:21;11.10;;;2.33;;
60354;SDS011;46198;51.464;-0.066;2023-11-19T11:03:53;14.02;;;2.47;;
60354;SDS011;46198;51.464;-0.066;2023-11-19T11:06:25;11.27;;;3.05;;
60354;SDS011;46198;51.464;-0.066;2023-11-19T11:08:56;13.82;;;2.95;;
60354;SDS011;46198;51.464;-0.066;2023-11-19T11:11:26;16.33;;;3.75;;
60354;SDS011;46198;51.464;-0.066;2023-11-19T11:13:55;5.97;;;2.35;;
60354;SDS011;46198;51.464;-0.066;2023-11-19T11:16:26;11.80;;;2.55;;
60354;SDS011;46198;51.464;-0.066;2023-11-19T11:18:58;17.38;;;3.58;;
60354;SDS011;46198;51.464;-0.066;2023-11-19T11:21:28;5.63;;;2.17;;
60354;SDS011;46198;51.464;-0.066;2023-11-19T11:24:11;13.80;;;2.72;;
60354;SDS011;46198;51.464;-0.066;2023-11-19T11:26:53;14.95;;;2.90;;
60354;SDS011;46198;51.464;-0.066;2023-11-19T11:29:37;13.20;;;2.58;;
60354;SDS011;46198;51.464;-0.066;2023-11-19T11:32:17;12.23;;;2.10;;
60354;SDS011;46198;51.464;-0.066;2023-11-19T11:35:02;14.00;;;4.00;;
60354;SDS011;46198;51.464;-0.066;2023-11-19T11:37:44;11.73;;;2.40;;
60354;SDS011;46198;51.464;-0.066;2023-11-19T11:40:14;12.20;;;2.70;;
60354;SDS011;46198;51.464;-0.066;2023-11-19T11:42:45;18.30;;;7.40;;
60354;SDS011;46198;51.464;-0.066;2023-11-19T11:45:13;17.48;;;3.90;;
60354;SDS011;46198;51.464;-0.066;2023-11-19T11:50:51;13.52;;;3.10;;
60354;SDS011;46198;51.464;-0.066;2023-11-19T11:53:22;14.30;;;2.42;;
60354;SDS011;46198;51.464;-0.066;2023-11-19T11:55:54;15.23;;;2.90;;
60354;SDS011;46198;51.464;-0.066;2023-11-19T11:58:26;10.07;;;2.70;;
60354;SDS011;46198;51.464;-0.066;2023-11-19T12:01:05;14.93;;;2.70;;
60354;SDS011;46198;51.464;-0.066;2023-11-19T12:03:32;14.70;;;2.45;;
60354;SDS011;46198;51.464;-0.066;2023-11-19T12:06:01;9.35;;;2.78;;
60354;SDS011;46198;51.464;-0.066;2023-11-19T12:08:31;14.35;;;2.63;;
60354;SDS011;46198;51.464;-0.066;2023-11-19T12:11:19;11.82;;;2.25;;
60354;SDS011;46198;51.464;-0.066;2023-11-19T12:13:54;14.77;;;2.90;;
60354;SDS011;46198;51.464;-0.066;2023-11-19T12:16:25;16.65;;;2.33;;
60354;SDS011;46198;51.464;-0.066;2023-11-19T12:18:56;12.82;;;2.40;;
60354;SDS011;46198;51.464;-0.066;2023-11-19T12:21:28;13.18;;;2.05;;
60354;SDS011;46198;51.464;-0.066;2023-11-19T12:23:59;11.35;;;3.33;;
60354;SDS011;46198;51.464;-0.066;2023-11-19T12:26:35;14.85;;;2.55;;
60354;SDS011;46198;51.464;-0.066;2023-11-19T12:29:04;16.73;;;2.80;;
60354;SDS011;46198;51.464;-0.066;2023-11-19T12:31:35;15.10;;;3.10;;
60354;SDS011;46198;51.464;-0.066;2023-11-19T12:34:05;13.43;;;2.40;;
60354;SDS011;46198;51.464;-0.066;2023-11-19T12:36:39;15.02;;;2.95;;
60354;SDS011;46198;51.464;-0.066;2023-11-19T12:39:09;9.07;;;2.83;;
60354;SDS011;46198;51.464;-0.066;2023-11-19T12:41:51;11.77;;;2.47;;
60354;SDS011;46198;51.464;-0.066;2023-11-19T12:44:21;15.57;;;3.58;;
60354;SDS011;46198;51.464;-0.066;2023-11-19T12:47:03;10.93;;;3.15;;
60354;SDS011;46198;51.464;-0.066;2023-11-19T12:49:33;7.80;;;2.08;;
60354;SDS011;46198;51.464;-0.066;2023-11-19T12:52:10;12.98;;;5.03;;
60354;SDS011;46198;51.464;-0.066;2023-11-19T12:54:41;13.77;;;2.92;;
60354;SDS011;46198;51.464;-0.066;2023-11-19T12:57:11;17.00;;;2.88;;
60354;SDS011;46198;51.464;-0.066;2023-11-19T12:59:39;11.90;;;3.22;;
60354;SDS011;46198;51.464;-0.066;2023-11-19T13:02:07;9.07;;;2.10;;
60354;SDS011;46198;51.464;-0.066;2023-11-19T13:04:36;13.90;;;2.55;;
60354;SDS011;46198;51.464;-0.066;2023-11-19T13:07:04;11.65;;;2.85;;
60354;SDS011;46198;51.464;-0.066;2023-11-19T13:09:33;11.13;;;3.55;;
60354;SDS011;46198;51.464;-0.066;2023-11-19T13:12:11;10.18;;;2.20;;
60354;SDS011;46198;51.464;-0.066;2023-11-19T13:14:41;9.27;;;2.10;;
60354;SDS011;46198;51.464;-0.066;2023-11-19T13:17:14;18.48;;;6.82;;
60354;SDS011;46198;51.464;-0.066;2023-11-19T13:19:43;15.07;;;3.38;;
60354;SDS011;46198;51.464;-0.066;2023-11-19T13:22:11;12.10;;;2.95;;
60354;SDS011;46198;51.464;-0.066;2023-11-19T13:24:41;14.63;;;4.57;;
60354;SDS011;46198;51.464;-0.066;2023-11-19T13:30:54;9.60;;;2.88;;
60354;SDS011;46198;51.464;-0.066;2023-11-19T13:33:22;8.43;;;1.83;;
60354;SDS011;46198;51.464;-0.066;2023-11-19T13:35:51;10.55;;;2.50;;
60354;SDS011;46198;51.464;-0.066;2023-11-19T13:38:19;10.82;;;3.15;;
60354;SDS011;46198;51.464;-0.066;2023-11-19T13:40:47;10.20;;;3.92;;
60354;SDS011;46198;51.464;-0.066;2023-11-19T13:43:16;11.50;;;2.45;;
60354;SDS011;46198;51.464;-0.066;2023-11-19T13:45:44;17.35;;;2.85;;
60354;SDS011;46198;51.464;-0.066;2023-11-19T13:48:14;13.38;;;3.13;;
60354;SDS011;46198;51.464;-0.066;2023-11-19T13:50:42;10.85;;;2.40;;
60354;SDS011;46198;51.464;-0.066;2023-11-19T13:53:10;12.27;;;4.20;;
60354;SDS011;46198;51.464;-0.066;2023-11-19T13:55:39;14.70;;;4.28;;
60354;SDS011;46198;51.464;-0.066;2023-11-19T13:58:07;13.95;;;3.33;;
60354;SDS011;46198;51.464;-0.066;2023-11-19T14:00:41;11.95;;;2.78;;
60354;SDS011;46198;51.464;-0.066;2023-11-19T14:03:10;16.33;;;4.53;;
60354;SDS011;46198;51.464;-0.066;2023-11-19T14:05:39;12.43;;;3.00;;
60354;SDS011;46198;51.464;-0.066;2023-11-19T14:08:08;8.73;;;2.50;;
60354;SDS011;46198;51.464;-0.066;2023-11-19T14:10:51;11.48;;;2.90;;
60354;SDS011;46198;51.464;-0.066;2023-11-19T14:13:22;7.30;;;1.55;;
60354;SDS011;46198;51.464;-0.066;2023-11-19T14:15:51;10.43;;;1.83;;
60354;SDS011;46198;51.464;-0.066;2023-11-19T14:18:19;11.18;;;2.08;;
60354;SDS011;46198;51.464;-0.066;2023-11-19T14:20:49;9.75;;;2.35;;
60354;SDS011;46198;51.464;-0.066;2023-11-19T14:23:17;6.95;;;1.75;;
60354;SDS011;46198;51.464;-0.066;2023-11-19T14:25:45;12.30;;;5.38;;
60354;SDS011;46198;51.464;-0.066;2023-11-19T14:28:13;9.65;;;4.43;;
60354;SDS011;46198;51.464;-0.066;2023-11-19T14:30:42;10.90;;;2.05;;
60354;SDS011;46198;51.464;-0.066;2023-11-19T14:33:12;6.18;;;2.08;;
60354;SDS011;46198;51.464;-0.066;2023-11-19T14:35:40;13.25;;;3.40;;
60354;SDS011;46198;51.464;-0.066;2023-11-19T14:38:11;17.45;;;7.53;;
60354;SDS011;46198;51.464;-0.066;2023-11-19T14:40:39;9.07;;;2.45;;
60354;SDS011;46198;51.464;-0.066;2023-11-19T14:43:09;10.73;;;2.25;;
60354;SDS011;46198;51.464;-0.066;2023-11-19T14:45:38;6.50;;;2.00;;
60354;SDS011;46198;51.464;-0.066;2023-11-19T14:48:15;7.93;;;2.22;;
60354;SDS011;46198;51.464;-0.066;2023-11-19T14:50:44;7.78;;;1.63;;
60354;SDS011;46198;51.464;-0.066;2023-11-19T14:53:14;12.02;;;1.98;;
60354;SDS011;46198;51.464;-0.066;2023-11-19T14:55:43;10.10;;;1.33;;
60354;SDS011;46198;51.464;-0.066;2023-11-19T14:58:11;8.93;;;1.60;;
60354;SDS011;46198;51.464;-0.066;2023-11-19T15:00:43;9.27;;;2.08;;
60354;SDS011;46198;51.464;-0.066;2023-11-19T15:03:13;8.13;;;3.58;;
60354;SDS011;46198;51.464;-0.066;2023-11-19T15:05:46;5.20;;;2.00;;
60354;SDS011;46198;51.464;-0.066;2023-11-19T15:08:15;10.15;;;4.25;;
60354;SDS011;46198;51.464;-0.066;2023-11-19T15:10:46;8.25;;;2.60;;
60354;SDS011;46198;51.464;-0.066;2023-11-19T15:13:15;7.35;;;2.30;;
60354;SDS011;46198;51.464;-0.066;2023-11-19T15:15:43;5.82;;;1.70;;
60354;SDS011;46198;51.464;-0.066;2023-11-19T15:18:11;11.13;;;2.50;;
60354;SDS011;46198;51.464;-0.066;2023-11-19T15:20:41;4.82;;;1.85;;